createdAt,value
2022-10-29T00:00:54.048Z,101559.94
2022-10-29T00:03:22.708Z,101553.91
2022-10-29T00:05:58.290Z,101553.91
2022-10-29T00:08:26.646Z,101575.97
2022-10-29T00:10:54.399Z,101571.63
2022-10-29T00:13:22.289Z,101574.06
2022-10-29T00:15:50.194Z,101572.19
2022-10-29T00:18:19.509Z,101572.13
2022-10-29T00:20:48.476Z,101575.38
2022-10-29T00:23:16.248Z,101581.53
2022-10-29T00:25:44.058Z,101580.56
2022-10-29T00:28:11.858Z,101578.63
2022-10-29T00:30:39.703Z,101583.81
2022-10-29T00:33:07.776Z,101585.63
2022-10-29T00:35:36.909Z,101586.44
2022-10-29T00:38:04.589Z,101594.38
2022-10-29T00:40:36.798Z,101598.00
2022-10-29T00:43:14.344Z,101599.63
2022-10-29T00:45:46.434Z,101612.69
2022-10-29T00:48:14.308Z,101616.06
2022-10-29T00:50:44.468Z,101610.63
2022-10-29T00:53:12.347Z,101606.06
2022-10-29T00:55:40.419Z,101614.81
2022-10-29T00:58:08.106Z,101613.69
2022-10-29T01:00:36.010Z,101615.25
2022-10-29T01:03:03.959Z,101623.13
2022-10-29T01:05:34.548Z,101607.47
2022-10-29T01:08:05.531Z,101601.34
2022-10-29T01:10:47.790Z,101607.47
2022-10-29T01:13:27.694Z,101593.13
2022-10-29T01:16:04.120Z,101595.69
2022-10-29T01:18:39.054Z,101618.06
2022-10-29T01:21:39.606Z,101615.97
2022-10-29T01:24:37.792Z,101612.34
2022-10-29T01:27:27.259Z,101614.78
2022-10-29T01:30:05.273Z,101609.28
2022-10-29T01:32:44.847Z,101616.94
2022-10-29T01:35:19.290Z,101610.81
2022-10-29T01:38:02.426Z,101615.84
2022-10-29T01:40:36.006Z,101611.28
2022-10-29T01:43:07.448Z,101605.13
2022-10-29T01:45:41.269Z,101615.44
2022-10-29T01:48:18.050Z,101621.53
2022-10-29T01:50:49.159Z,101612.66
2022-10-29T01:53:18.367Z,101623.00
2022-10-29T01:55:46.175Z,101623.81
2022-10-29T01:58:15.053Z,101629.84
2022-10-29T02:00:52.220Z,101626.16
2022-10-29T02:03:38.499Z,101634.78
2022-10-29T02:06:16.279Z,101633.16
2022-10-29T02:08:54.629Z,101636.44
2022-10-29T02:11:26.351Z,101638.94
2022-10-29T02:14:00.511Z,101631.00
2022-10-29T02:16:29.960Z,101642.41
2022-10-29T02:18:59.279Z,101638.06
2022-10-29T02:21:27.416Z,101640.63
2022-10-29T02:23:55.243Z,101644.16
2022-10-29T02:26:23.031Z,101646.06
2022-10-29T02:28:50.730Z,101651.19
2022-10-29T02:31:18.401Z,101656.44
2022-10-29T02:33:46.182Z,101655.44
2022-10-29T02:36:15.508Z,101653.84
2022-10-29T02:38:43.473Z,101667.72
2022-10-29T02:41:11.361Z,101669.34
2022-10-29T02:43:39.123Z,101670.31
2022-10-29T02:46:15.261Z,101679.41
2022-10-29T02:48:46.199Z,101672.41
2022-10-29T02:51:15.908Z,101679.25
2022-10-29T02:53:43.884Z,101677.38
2022-10-29T02:56:12.375Z,101673.00
2022-10-29T02:58:40.195Z,101684.25
2022-10-29T03:01:08.098Z,101684.28
2022-10-29T03:03:35.956Z,101676.34
2022-10-29T03:06:03.759Z,101670.31
2022-10-29T03:08:39.010Z,101672.22
2022-10-29T03:11:06.832Z,101679.91
2022-10-29T03:13:34.555Z,101672.22
2022-10-29T03:16:02.427Z,101679.03
2022-10-29T03:18:30.064Z,101680.72
2022-10-29T03:20:59.230Z,101677.94
2022-10-29T03:23:27.088Z,101676.06
2022-10-29T03:25:57.248Z,101665.56
2022-10-29T03:28:27.890Z,101661.94
2022-10-29T03:30:59.230Z,101672.22
2022-10-29T03:33:27.794Z,101671.53
2022-10-29T03:35:59.548Z,101681.81
2022-10-29T03:38:27.903Z,101680.06
2022-10-29T03:40:57.134Z,101681.28
2022-10-29T03:43:25.219Z,101680.19
2022-10-29T03:45:53.355Z,101686.88
2022-10-29T03:48:21.148Z,101686.75
2022-10-29T03:50:56.118Z,101697.44
2022-10-29T03:53:24.272Z,101684.28
2022-10-29T03:55:52.731Z,101690.53
2022-10-29T03:58:22.720Z,101689.66
2022-10-29T04:00:58.011Z,101692.53
2022-10-29T04:03:26.062Z,101695.88
2022-10-29T04:05:53.891Z,101697.44
2022-10-29T04:08:21.938Z,101702.91
2022-10-29T04:10:51.458Z,101710.78
2022-10-29T04:13:20.011Z,101709.13
2022-10-29T04:15:49.105Z,101706.78
2022-10-29T04:18:16.911Z,101700.47
2022-10-29T04:22:13.646Z,101707.69
2022-10-29T04:29:07.841Z,101707.69
2022-10-29T04:31:37.153Z,101713.69
2022-10-29T04:34:04.980Z,101713.56
2022-10-29T04:36:32.828Z,101699.97
2022-10-29T04:39:00.504Z,101703.22
2022-10-29T04:41:28.948Z,101701.41
2022-10-29T04:43:56.700Z,101701.31
2022-10-29T04:46:24.637Z,101701.94
2022-10-29T04:48:54.000Z,101699.22
2022-10-29T04:51:23.201Z,101693.88
2022-10-29T04:53:51.322Z,101697.34
2022-10-29T04:56:19.150Z,101687.75
2022-10-29T04:58:47.133Z,101685.94
2022-10-29T05:01:15.001Z,101693.88
2022-10-29T05:03:43.030Z,101720.09
2022-10-29T05:06:12.153Z,101721.06
2022-10-29T05:08:39.984Z,101726.25
2022-10-29T05:11:07.987Z,101713.38
2022-10-29T05:13:36.106Z,101716.69
2022-10-29T05:16:03.871Z,101716.69
2022-10-29T05:18:31.868Z,101718.59
2022-10-29T05:20:59.657Z,101722.25
2022-10-29T05:23:28.979Z,101731.03
2022-10-29T05:25:57.139Z,101733.75
2022-10-29T05:28:25.228Z,101728.53
2022-10-29T05:30:54.020Z,101725.91
2022-10-29T05:33:23.642Z,101737.94
2022-10-29T05:35:51.969Z,101732.81
2022-10-29T05:38:20.606Z,101749.38
2022-10-29T05:40:49.883Z,101745.88
2022-10-29T05:43:18.272Z,101732.81
2022-10-29T05:45:49.019Z,101723.94
2022-10-29T05:48:16.731Z,101726.44
2022-10-29T05:50:44.663Z,101719.56
2022-10-29T05:53:14.594Z,101722.16
2022-10-29T05:55:43.250Z,101713.31
2022-10-29T05:58:14.478Z,101708.75
2022-10-29T06:00:44.453Z,101700.84
2022-10-29T06:03:14.188Z,101704.97
2022-10-29T06:05:42.220Z,101726.56
2022-10-29T06:08:10.380Z,101728.16
2022-10-29T06:10:38.308Z,101736.13
2022-10-29T06:13:15.739Z,101735.34
2022-10-29T06:15:43.504Z,101737.97
2022-10-29T06:18:11.472Z,101750.97
2022-10-29T06:20:40.248Z,101745.38
2022-10-29T06:23:08.685Z,101743.47
2022-10-29T06:25:38.937Z,101741.66
2022-10-29T06:28:08.112Z,101748.69
2022-10-29T06:30:38.311Z,101753.19
2022-10-29T06:33:06.824Z,101761.97
2022-10-29T06:38:10.995Z,101765.88
2022-10-29T06:40:40.066Z,101766.88
2022-10-29T06:43:10.580Z,101774.88
2022-10-29T06:45:39.987Z,101766.47
2022-10-29T06:48:08.289Z,101770.19
2022-10-29T06:50:36.547Z,101776.38
2022-10-29T06:53:05.908Z,101771.38
2022-10-29T06:55:34.793Z,101767.09
2022-10-29T06:58:04.215Z,101782.00
2022-10-29T07:00:33.000Z,101777.00
2022-10-29T07:03:02.207Z,101777.06
2022-10-29T07:05:35.927Z,101776.28
2022-10-29T07:08:05.674Z,101777.34
2022-10-29T07:10:34.552Z,101776.72
2022-10-29T07:13:05.062Z,101768.09
2022-10-29T07:15:33.427Z,101770.88
2022-10-29T07:18:04.503Z,101764.91
2022-10-29T07:20:34.438Z,101757.16
2022-10-29T07:23:02.208Z,101768.66
2022-10-29T07:25:30.582Z,101781.19
2022-10-29T07:28:04.199Z,101776.16
2022-10-29T07:30:32.222Z,101773.56
2022-10-29T07:33:00.093Z,101774.75
2022-10-29T07:35:33.790Z,101785.28
2022-10-29T07:38:05.365Z,101786.38
2022-10-29T07:40:38.472Z,101798.66
2022-10-29T07:43:06.225Z,101796.09
2022-10-29T07:45:37.355Z,101787.72
2022-10-29T07:48:08.094Z,101795.06
2022-10-29T07:50:38.400Z,101797.03
2022-10-29T07:53:08.070Z,101796.38
2022-10-29T07:55:36.076Z,101793.06
2022-10-29T07:58:06.091Z,101793.94
2022-10-29T08:00:35.712Z,101798.50
2022-10-29T08:03:03.717Z,101800.44
2022-10-29T08:05:32.198Z,101798.88
2022-10-29T08:08:01.651Z,101800.75
2022-10-29T08:10:31.396Z,101794.88
2022-10-29T08:13:01.296Z,101796.63
2022-10-29T08:15:31.592Z,101789.84
2022-10-29T08:17:59.725Z,101788.16
2022-10-29T08:20:30.070Z,101784.78
2022-10-29T08:23:01.898Z,101783.16
2022-10-29T08:25:30.459Z,101795.50
2022-10-29T08:28:03.126Z,101797.44
2022-10-29T08:30:31.505Z,101796.63
2022-10-29T08:33:00.813Z,101794.03
2022-10-29T08:35:30.437Z,101783.53
2022-10-29T08:37:59.156Z,101793.22
2022-10-29T08:40:33.402Z,101782.00
2022-10-29T08:43:33.734Z,101787.47
2022-10-29T08:46:02.179Z,101785.03
2022-10-29T08:48:38.614Z,101798.25
2022-10-29T08:51:15.479Z,101791.38
2022-10-29T08:53:54.193Z,101782.81
2022-10-29T08:56:36.188Z,101781.34
2022-10-29T08:59:08.133Z,101788.38
2022-10-29T09:01:39.683Z,101793.75
2022-10-29T09:04:22.407Z,101793.75
2022-10-29T09:07:02.866Z,101793.97
2022-10-29T09:09:36.089Z,101799.16
2022-10-29T09:12:46.323Z,101800.13
2022-10-29T09:15:32.674Z,101795.84
2022-10-29T09:18:17.510Z,101784.59
2022-10-29T09:20:53.961Z,101787.41
2022-10-29T09:23:29.829Z,101781.38
2022-10-29T09:26:03.242Z,101790.31
2022-10-29T09:28:44.430Z,101792.31
2022-10-29T09:31:24.150Z,101796.84
2022-10-29T09:33:57.766Z,101793.53
2022-10-29T09:36:30.860Z,101798.06
2022-10-29T09:39:02.895Z,101793.00
2022-10-29T09:41:34.143Z,101793.19
2022-10-29T09:44:08.676Z,101788.00
2022-10-29T09:46:41.574Z,101785.75
2022-10-29T09:49:20.465Z,101787.50
2022-10-29T09:51:54.812Z,101778.00
2022-10-29T09:54:24.332Z,101773.59
2022-10-29T09:56:55.728Z,101766.75
2022-10-29T09:59:29.965Z,101768.63
2022-10-29T10:02:00.470Z,101771.47
2022-10-29T10:04:30.867Z,101762.81
2022-10-29T10:07:09.437Z,101761.00
2022-10-29T10:09:54.042Z,101759.28
2022-10-29T10:12:24.089Z,101753.16
2022-10-29T10:15:06.135Z,101754.78
2022-10-29T10:17:56.477Z,101754.94
2022-10-29T10:20:36.370Z,101749.66
2022-10-29T10:23:21.442Z,101742.66
2022-10-29T10:25:53.276Z,101746.22
2022-10-29T10:28:23.497Z,101748.00
2022-10-29T10:31:11.842Z,101736.69
2022-10-29T10:33:52.813Z,101737.66
2022-10-29T10:36:23.600Z,101733.13
2022-10-29T10:38:54.130Z,101729.41
2022-10-29T10:41:31.188Z,101728.16
2022-10-29T10:44:02.259Z,101731.66
2022-10-29T10:46:35.376Z,101728.09
2022-10-29T10:49:06.972Z,101728.97
2022-10-29T10:51:37.254Z,101728.97
2022-10-29T10:54:22.022Z,101739.44
2022-10-29T10:56:56.929Z,101738.66
2022-10-29T10:59:28.098Z,101738.69
2022-10-29T11:02:01.331Z,101739.78
2022-10-29T11:04:35.020Z,101741.41
2022-10-29T11:07:07.627Z,101736.13
2022-10-29T11:09:39.720Z,101733.50
2022-10-29T11:12:14.726Z,101731.72
2022-10-29T11:14:50.967Z,101733.66
2022-10-29T11:17:28.329Z,101729.38
2022-10-29T11:19:59.975Z,101725.13
2022-10-29T11:22:34.532Z,101713.84
2022-10-29T11:25:07.970Z,101710.16
2022-10-29T11:27:42.214Z,101707.69
2022-10-29T11:30:13.469Z,101696.25
2022-10-29T11:32:53.138Z,101691.78
2022-10-29T11:35:30.455Z,101693.44
2022-10-29T11:38:03.587Z,101684.56
2022-10-29T11:40:42.301Z,101689.78
2022-10-29T11:43:12.657Z,101684.63
2022-10-29T11:45:51.371Z,101677.72
2022-10-29T11:48:27.179Z,101681.25
2022-10-29T11:51:00.169Z,101684.72
2022-10-29T11:53:42.552Z,101681.25
2022-10-29T11:56:23.000Z,101669.94
2022-10-29T11:58:58.232Z,101670.03
2022-10-29T12:01:35.661Z,101668.38
2022-10-29T12:04:27.067Z,101661.44
2022-10-29T12:07:13.464Z,101655.47
2022-10-29T12:10:03.976Z,101653.94
2022-10-29T12:12:38.383Z,101644.38
2022-10-29T12:15:17.656Z,101647.22
2022-10-29T12:17:58.437Z,101641.06
2022-10-29T12:20:35.026Z,101628.78
2022-10-29T12:23:15.110Z,101626.16
2022-10-29T12:25:56.791Z,101628.81
2022-10-29T12:28:39.001Z,101635.84
2022-10-29T12:31:24.509Z,101638.50
2022-10-29T12:34:01.496Z,101631.44
2022-10-29T12:36:38.014Z,101631.44
2022-10-29T12:39:14.935Z,101628.78
2022-10-29T12:41:46.426Z,101626.09
2022-10-29T12:44:25.657Z,101625.13
2022-10-29T12:47:03.398Z,101629.41
2022-10-29T12:49:45.330Z,101625.88
2022-10-29T12:52:21.384Z,101620.53
2022-10-29T12:54:52.784Z,101616.09
2022-10-29T12:57:31.903Z,101611.69
2022-10-29T13:00:50.413Z,101605.53
2022-10-29T13:03:55.907Z,101597.66
2022-10-29T13:06:57.258Z,101597.63
2022-10-29T13:09:34.258Z,101586.16
2022-10-29T13:12:03.913Z,101585.28
2022-10-29T13:14:41.097Z,101582.56
2022-10-29T13:17:25.250Z,101587.03
2022-10-29T13:19:57.069Z,101580.00
2022-10-29T13:22:52.470Z,101578.22
2022-10-29T13:25:46.339Z,101575.59
2022-10-29T13:28:50.425Z,101579.94
2022-10-29T13:31:51.732Z,101581.72
2022-10-29T13:34:56.223Z,101573.78
2022-10-29T13:38:03.668Z,101579.09
2022-10-29T13:41:05.323Z,101579.13
2022-10-29T13:43:34.377Z,101580.03
2022-10-29T13:46:48.113Z,101578.28
2022-10-29T13:49:24.584Z,101569.53
2022-10-29T13:51:56.845Z,101578.34
2022-10-29T13:54:32.509Z,101577.44
2022-10-29T13:57:06.825Z,101572.13
2022-10-29T13:59:41.132Z,101567.69
2022-10-29T14:02:26.818Z,101564.16
2022-10-29T14:04:59.803Z,101571.19
2022-10-29T14:07:34.839Z,101560.50
2022-10-29T14:10:09.615Z,101555.16
2022-10-29T14:12:41.006Z,101563.97
2022-10-29T14:15:12.652Z,101570.97
2022-10-29T14:17:42.670Z,101567.34
2022-10-29T14:20:23.044Z,101564.69
2022-10-29T14:22:50.945Z,101569.00
2022-10-29T14:25:31.843Z,101557.50
2022-10-29T14:28:19.999Z,101558.28
2022-10-29T14:30:49.019Z,101567.00
2022-10-29T14:33:25.745Z,101570.56
2022-10-29T14:35:57.358Z,101568.72
2022-10-29T14:38:33.735Z,101568.69
2022-10-29T14:41:02.167Z,101583.56
2022-10-29T14:43:33.401Z,101575.53
2022-10-29T14:46:13.380Z,101571.06
2022-10-29T14:48:52.641Z,101567.59
2022-10-29T14:51:22.512Z,101577.25
2022-10-29T14:53:58.689Z,101571.09
2022-10-29T14:56:36.461Z,101568.53
2022-10-29T14:59:19.179Z,101571.13
2022-10-29T15:01:56.916Z,101577.34
2022-10-29T15:04:30.500Z,101571.97
2022-10-29T15:10:51.723Z,101573.78
2022-10-29T15:13:32.703Z,101571.91
2022-10-29T15:16:04.723Z,101567.44
2022-10-29T15:18:36.999Z,101565.59
2022-10-29T15:21:06.354Z,101567.25
2022-10-29T15:23:37.084Z,101566.31
2022-10-29T15:26:08.724Z,101556.56
2022-10-29T15:28:42.919Z,101555.59
2022-10-29T15:31:22.231Z,101560.75
2022-10-29T15:33:52.919Z,101552.66
2022-10-29T15:36:21.189Z,101561.34
2022-10-29T15:39:19.125Z,101555.13
2022-10-29T15:41:50.252Z,101554.13
2022-10-29T15:44:30.538Z,101552.44
2022-10-29T15:47:01.495Z,101549.63
2022-10-29T15:49:32.671Z,101544.34
2022-10-29T15:52:02.117Z,101546.97
2022-10-29T15:54:30.682Z,101553.19
2022-10-29T15:56:58.836Z,101554.03
2022-10-29T15:59:27.525Z,101559.19
2022-10-29T16:01:55.805Z,101573.25
2022-10-29T16:04:25.251Z,101564.38
2022-10-29T16:06:53.119Z,101573.25
2022-10-29T16:09:22.072Z,101569.63
2022-10-29T16:11:50.809Z,101565.28
2022-10-29T16:14:18.621Z,101572.28
2022-10-29T16:16:46.471Z,101573.41
2022-10-29T16:19:14.300Z,101577.75
2022-10-29T16:21:46.560Z,101580.41
2022-10-29T16:24:15.772Z,101575.03
2022-10-29T16:26:44.551Z,101568.88
2022-10-29T16:29:16.117Z,101560.94
2022-10-29T16:31:44.456Z,101562.66
2022-10-29T16:34:16.295Z,101560.03
2022-10-29T16:36:46.477Z,101560.91
2022-10-29T16:39:14.464Z,101559.88
2022-10-29T16:41:42.372Z,101553.78
2022-10-29T16:44:10.613Z,101562.34
2022-10-29T16:46:38.460Z,101561.44
2022-10-29T16:49:06.276Z,101551.75
2022-10-29T16:51:34.074Z,101549.91
2022-10-29T16:54:03.469Z,101548.09
2022-10-29T16:56:31.426Z,101557.72
2022-10-29T16:59:01.712Z,101560.28
2022-10-29T17:01:32.523Z,101557.66
2022-10-29T17:04:00.507Z,101559.50
2022-10-29T17:06:28.470Z,101558.53
2022-10-29T17:08:56.309Z,101553.16
2022-10-29T17:11:31.143Z,101549.56
2022-10-29T17:13:59.108Z,101549.50
2022-10-29T17:16:27.207Z,101553.97
2022-10-29T17:18:55.287Z,101558.34
2022-10-29T17:21:23.329Z,101558.25
2022-10-29T17:23:51.501Z,101560.84
2022-10-29T17:26:19.521Z,101560.00
2022-10-29T17:28:48.896Z,101561.78
2022-10-29T17:31:16.848Z,101563.53
2022-10-29T17:33:44.832Z,101570.50
2022-10-29T17:36:14.653Z,101573.06
2022-10-29T17:38:42.835Z,101566.09
2022-10-29T17:41:11.260Z,101573.31
2022-10-29T17:43:39.204Z,101563.63
2022-10-29T17:46:08.855Z,101564.53
2022-10-29T17:48:37.125Z,101563.75
2022-10-29T17:51:05.234Z,101571.53
2022-10-29T17:53:33.025Z,101559.22
2022-10-29T17:56:01.792Z,101561.78
2022-10-29T17:58:34.678Z,101561.84
2022-10-29T18:01:14.061Z,101566.06
2022-10-29T18:03:42.274Z,101561.50
2022-10-29T18:06:14.743Z,101554.38
2022-10-29T18:08:46.521Z,101556.84
2022-10-29T18:11:17.336Z,101555.31
2022-10-29T18:13:47.425Z,101556.88
2022-10-29T18:16:19.352Z,101561.03
2022-10-29T18:19:01.737Z,101568.84
2022-10-29T18:21:31.373Z,101560.94
2022-10-29T18:23:59.558Z,101559.97
2022-10-29T18:26:30.450Z,101554.59
2022-10-29T18:28:59.950Z,101545.69
2022-10-29T18:31:31.753Z,101561.41
2022-10-29T18:34:01.140Z,101548.91
2022-10-29T18:36:29.662Z,101552.41
2022-10-29T18:38:59.241Z,101549.69
2022-10-29T18:41:27.802Z,101561.81
2022-10-29T18:43:55.890Z,101568.81
2022-10-29T18:46:24.158Z,101564.81
2022-10-29T18:48:53.550Z,101559.69
2022-10-29T18:51:24.470Z,101555.38
2022-10-29T18:53:57.970Z,101553.44
2022-10-29T18:56:28.381Z,101567.25
2022-10-29T18:58:57.422Z,101560.47
2022-10-29T19:01:27.938Z,101557.50
2022-10-29T19:03:58.848Z,101550.50
2022-10-29T19:06:29.531Z,101551.25
2022-10-29T19:08:58.144Z,101551.84
2022-10-29T19:11:27.205Z,101558.78
2022-10-29T19:13:56.508Z,101558.72
2022-10-29T19:16:24.979Z,101556.94
2022-10-29T19:18:58.032Z,101550.91
2022-10-29T19:21:27.070Z,101547.41
2022-10-29T19:23:56.430Z,101546.53
2022-10-29T19:26:25.759Z,101547.25
2022-10-29T19:28:53.771Z,101551.69
2022-10-29T19:31:32.221Z,101540.31
2022-10-29T19:34:04.236Z,101547.22
2022-10-29T19:36:32.284Z,101542.94
2022-10-29T19:39:00.551Z,101536.66
2022-10-29T19:41:29.345Z,101534.81
2022-10-29T19:44:00.128Z,101538.97
2022-10-29T19:46:28.592Z,101545.91
2022-10-29T19:48:58.491Z,101544.22
2022-10-29T19:51:29.034Z,101539.16
2022-10-29T19:53:57.996Z,101541.03
2022-10-29T19:56:25.908Z,101533.72
2022-10-29T19:58:53.617Z,101536.97
2022-10-29T20:01:21.444Z,101538.66
2022-10-29T20:03:49.192Z,101549.03
2022-10-29T20:06:17.982Z,101545.31
2022-10-29T20:08:47.184Z,101545.84
2022-10-29T20:11:21.003Z,101543.84
2022-10-29T20:13:48.773Z,101547.22
2022-10-29T20:16:18.234Z,101555.81
2022-10-29T20:18:46.204Z,101546.25
2022-10-29T20:21:21.164Z,101548.19
2022-10-29T20:23:50.707Z,101553.47
2022-10-29T20:26:18.586Z,101552.63
2022-10-29T20:28:46.384Z,101550.78
2022-10-29T20:31:27.814Z,101560.69
2022-10-29T20:33:59.691Z,101562.28
2022-10-29T20:36:30.739Z,101566.59
2022-10-29T20:39:17.449Z,101570.44
2022-10-29T20:41:45.542Z,101565.06
2022-10-29T20:44:13.273Z,101563.31
2022-10-29T20:46:43.530Z,101566.00
2022-10-29T20:49:11.859Z,101564.31
2022-10-29T20:51:39.541Z,101573.00
2022-10-29T20:54:08.827Z,101573.97
2022-10-29T20:56:38.126Z,101579.16
2022-10-29T20:59:06.237Z,101579.63
2022-10-29T21:01:36.505Z,101577.03
2022-10-29T21:04:04.443Z,101576.63
2022-10-29T21:06:32.155Z,101577.47
2022-10-29T21:09:00.004Z,101574.59
2022-10-29T21:11:29.146Z,101569.59
2022-10-29T21:13:56.888Z,101578.41
2022-10-29T21:16:27.431Z,101570.47
2022-10-29T21:18:56.558Z,101572.31
2022-10-29T21:21:24.670Z,101570.72
2022-10-29T21:23:52.559Z,101574.16
2022-10-29T21:26:22.818Z,101568.84
2022-10-29T21:28:53.064Z,101561.91
2022-10-29T21:31:21.808Z,101561.16
2022-10-29T21:33:50.144Z,101574.38
2022-10-29T21:36:18.099Z,101569.25
2022-10-29T21:38:46.130Z,101571.75
2022-10-29T21:41:13.957Z,101571.00
2022-10-29T21:43:44.983Z,101577.88
2022-10-29T21:46:15.603Z,101570.78
2022-10-29T21:48:43.375Z,101583.03
2022-10-29T21:51:13.495Z,101584.66
2022-10-29T21:53:41.307Z,101576.75
2022-10-29T21:56:11.521Z,101580.22
2022-10-29T21:58:39.383Z,101563.59
2022-10-29T22:01:09.270Z,101567.06
2022-10-29T22:03:41.305Z,101569.69
2022-10-29T22:06:12.192Z,101565.47
2022-10-29T22:08:40.667Z,101565.28
2022-10-29T22:11:08.727Z,101566.41
2022-10-29T22:13:36.979Z,101548.94
2022-10-29T22:16:06.367Z,101557.50
2022-10-29T22:18:34.529Z,101557.38
2022-10-29T22:21:09.294Z,101552.97
2022-10-29T22:23:38.310Z,101551.19
2022-10-29T22:26:06.123Z,101539.03
2022-10-29T22:28:33.740Z,101542.56
2022-10-29T22:31:02.791Z,101538.09
2022-10-29T22:33:31.270Z,101532.78
2022-10-29T22:36:05.723Z,101532.00
2022-10-29T22:38:34.872Z,101538.22
2022-10-29T22:41:07.154Z,101541.91
2022-10-29T22:43:34.874Z,58734.78
2022-10-29T22:46:02.945Z,58734.78
2022-10-29T22:48:30.777Z,58734.78
2022-10-29T22:51:03.418Z,58734.78
2022-10-29T22:53:31.555Z,58734.78
2022-10-29T22:56:01.227Z,58734.78
2022-10-29T22:58:29.308Z,58734.78
2022-10-29T23:01:05.707Z,58734.78
2022-10-29T23:03:34.204Z,58734.78
2022-10-29T23:06:03.710Z,58734.78
2022-10-29T23:08:32.224Z,58734.78
2022-10-29T23:11:05.738Z,58734.78
2022-10-29T23:13:33.485Z,58734.78
2022-10-29T23:16:01.776Z,58734.78
2022-10-29T23:18:29.506Z,58734.78
2022-10-29T23:21:01.304Z,58734.78
2022-10-29T23:23:29.384Z,58734.78
2022-10-29T23:26:01.466Z,58734.78
2022-10-29T23:28:31.918Z,58734.78
2022-10-29T23:31:01.626Z,58734.78
2022-10-29T23:33:29.484Z,58734.78
2022-10-29T23:36:01.723Z,58734.78
2022-10-29T23:38:29.391Z,58734.78
2022-10-29T23:40:57.163Z,58734.78
2022-10-29T23:43:25.260Z,58734.78
2022-10-29T23:45:54.628Z,58734.78
2022-10-29T23:48:22.427Z,58734.78
2022-10-29T23:50:50.154Z,58734.78
2022-10-29T23:53:18.623Z,58734.78
2022-10-29T23:55:46.953Z,58734.78
2022-10-29T23:58:16.125Z,58734.78
